createdAt,value
2023-01-21T00:00:36.326Z,100561.78
2023-01-21T00:03:20.816Z,100570.88
2023-01-21T00:05:50.040Z,100575.69
2023-01-21T00:08:18.951Z,100565.41
2023-01-21T00:10:49.466Z,100565.34
2023-01-21T00:13:18.426Z,100556.88
2023-01-21T00:15:47.914Z,100542.91
2023-01-21T00:18:16.763Z,100549.00
2023-01-21T00:20:46.858Z,100539.78
2023-01-21T00:23:15.710Z,100544.13
2023-01-21T00:25:44.832Z,100554.16
2023-01-21T00:28:15.026Z,100557.59
2023-01-21T00:30:44.158Z,100549.13
2023-01-21T00:33:13.069Z,100547.28
2023-01-21T00:35:42.536Z,100538.03
2023-01-21T00:38:11.339Z,100534.06
2023-01-21T00:40:40.398Z,100525.13
2023-01-21T00:43:09.224Z,100538.03
2023-01-21T00:45:39.669Z,100531.97
2023-01-21T00:48:08.470Z,100528.13
2023-01-21T00:50:37.614Z,100524.53
2023-01-21T00:53:06.393Z,100515.03
2023-01-21T00:55:35.693Z,100506.00
2023-01-21T00:58:04.776Z,100522.31
2023-01-21T01:00:33.867Z,100510.66
2023-01-21T01:03:04.029Z,100514.41
2023-01-21T01:05:33.414Z,100499.88
2023-01-21T01:08:02.267Z,100505.16
2023-01-21T01:10:31.359Z,100508.28
2023-01-21T01:13:02.032Z,100515.47
2023-01-21T01:15:31.097Z,100522.31
2023-01-21T01:17:59.916Z,100522.59
2023-01-21T01:20:30.371Z,100507.19
2023-01-21T01:22:59.194Z,100506.50
2023-01-21T01:25:28.254Z,100499.53
2023-01-21T01:27:56.994Z,100501.94
2023-01-21T01:30:26.094Z,100490.69
2023-01-21T01:32:54.870Z,100489.13
2023-01-21T01:35:24.250Z,100480.63
2023-01-21T01:37:55.808Z,100475.63
2023-01-21T01:40:24.923Z,100467.22
2023-01-21T01:42:53.672Z,100471.31
2023-01-21T01:45:23.570Z,100462.84
2023-01-21T01:48:00.042Z,100450.91
2023-01-21T01:50:34.913Z,100449.03
2023-01-21T01:53:05.497Z,100441.19
2023-01-21T01:55:38.143Z,100446.31
2023-01-21T01:58:13.368Z,100435.66
2023-01-21T02:00:42.458Z,100421.09
2023-01-21T02:03:30.297Z,100424.84
2023-01-21T02:06:00.044Z,100411.72
2023-01-21T02:08:32.764Z,100404.91
2023-01-21T02:11:02.738Z,100402.34
2023-01-21T02:13:33.638Z,100396.19
2023-01-21T02:16:34.990Z,100397.53
2023-01-21T02:19:43.203Z,100386.88
2023-01-21T02:22:27.462Z,100393.09
2023-01-21T02:25:49.304Z,100390.88
2023-01-21T02:29:18.308Z,100391.88
2023-01-21T02:32:44.153Z,100399.72
2023-01-21T02:35:25.787Z,100393.72
2023-01-21T02:38:07.025Z,100386.41
2023-01-21T02:40:48.977Z,100392.63
2023-01-21T02:43:29.779Z,100394.13
2023-01-21T02:46:07.164Z,100384.78
2023-01-21T02:48:43.866Z,100386.50
2023-01-21T02:51:15.193Z,100382.84
2023-01-21T02:53:43.932Z,100382.34
2023-01-21T02:56:19.294Z,100386.44
2023-01-21T02:58:56.181Z,100378.41
2023-01-21T03:01:46.707Z,100367.28
2023-01-21T03:04:44.600Z,100368.88
2023-01-21T03:07:24.115Z,100357.72
2023-01-21T03:09:54.546Z,100363.53
2023-01-21T03:12:38.632Z,100364.69
2023-01-21T03:15:32.610Z,100351.84
2023-01-21T03:18:11.713Z,100349.91
2023-01-21T03:20:46.621Z,100352.19
2023-01-21T03:23:25.069Z,100343.88
2023-01-21T03:25:56.689Z,100333.59
2023-01-21T03:28:30.578Z,100320.97
2023-01-21T03:31:07.040Z,100329.41
2023-01-21T03:33:41.639Z,100314.84
2023-01-21T03:36:24.207Z,100307.81
2023-01-21T03:38:58.918Z,100297.25
2023-01-21T03:41:36.531Z,100301.88
2023-01-21T03:44:05.802Z,100293.94
2023-01-21T03:46:41.574Z,100293.19
2023-01-21T03:49:21.681Z,100284.63
2023-01-21T03:51:57.235Z,100293.66
2023-01-21T03:54:28.113Z,100289.75
2023-01-21T03:56:56.923Z,100289.06
2023-01-21T03:59:26.223Z,100270.78
2023-01-21T04:01:55.080Z,100268.31
2023-01-21T04:04:24.250Z,100272.72
2023-01-21T04:06:52.989Z,100261.44
2023-01-21T04:09:22.025Z,100259.63
2023-01-21T04:11:52.199Z,100264.53
2023-01-21T04:14:21.265Z,100263.63
2023-01-21T04:16:50.165Z,100278.19
2023-01-21T04:19:19.301Z,100282.00
2023-01-21T04:21:48.067Z,100290.41
2023-01-21T04:24:17.325Z,100280.75
2023-01-21T04:26:46.167Z,100293.94
2023-01-21T04:29:17.190Z,100294.84
2023-01-21T04:31:46.512Z,100298.25
2023-01-21T04:34:16.713Z,100306.19
2023-01-21T04:36:45.583Z,100305.81
2023-01-21T04:39:14.740Z,100299.88
2023-01-21T04:41:43.578Z,100299.69
2023-01-21T04:44:12.665Z,100301.50
2023-01-21T04:46:42.940Z,100295.28
2023-01-21T04:49:12.141Z,100301.56
2023-01-21T04:51:40.965Z,100299.00
2023-01-21T04:54:11.559Z,100300.44
2023-01-21T04:56:40.393Z,100302.47
2023-01-21T04:59:09.657Z,100293.19
2023-01-21T05:01:38.482Z,100290.56
2023-01-21T05:04:08.995Z,100291.00
2023-01-21T05:06:37.759Z,100297.81
2023-01-21T05:09:07.001Z,100277.75
2023-01-21T05:11:35.798Z,100284.09
2023-01-21T05:14:04.895Z,100286.72
2023-01-21T05:16:33.715Z,100288.56
2023-01-21T05:19:02.867Z,100284.22
2023-01-21T05:21:33.059Z,100291.88
2023-01-21T05:24:02.395Z,100285.19
2023-01-21T05:26:31.207Z,100282.47
2023-01-21T05:29:00.256Z,100287.78
2023-01-21T05:31:29.189Z,100283.38
2023-01-21T05:33:58.838Z,100287.66
2023-01-21T05:36:27.984Z,100295.22
2023-01-21T05:38:58.482Z,100276.34
2023-01-21T05:41:27.411Z,100285.97
2023-01-21T05:43:56.571Z,100280.63
2023-01-21T05:46:25.400Z,100278.94
2023-01-21T05:48:54.627Z,100275.66
2023-01-21T05:51:23.699Z,100289.84
2023-01-21T05:53:52.921Z,100291.88
2023-01-21T05:56:23.108Z,100282.16
2023-01-21T05:58:52.330Z,100292.50
2023-01-21T06:01:21.181Z,100293.31
2023-01-21T06:03:50.465Z,100296.84
2023-01-21T06:06:19.361Z,100306.56
2023-01-21T06:08:48.439Z,100293.53
2023-01-21T06:11:17.230Z,100294.53
2023-01-21T06:13:47.698Z,100292.66
2023-01-21T06:16:16.538Z,100302.94
2023-01-21T06:18:45.546Z,100302.13
2023-01-21T06:21:14.325Z,100307.03
2023-01-21T06:23:43.463Z,100308.69
2023-01-21T06:26:12.246Z,100306.75
2023-01-21T06:28:41.282Z,100298.09
2023-01-21T06:31:11.565Z,100305.59
2023-01-21T06:33:40.750Z,100300.28
2023-01-21T06:36:10.649Z,100294.34
2023-01-21T06:38:39.699Z,100296.09
2023-01-21T06:41:08.468Z,100294.84
2023-01-21T06:43:37.656Z,100292.06
2023-01-21T06:46:06.655Z,100297.59
2023-01-21T06:48:37.111Z,100307.53
2023-01-21T06:51:06.607Z,100310.88
2023-01-21T06:53:35.758Z,100308.41
2023-01-21T06:56:04.923Z,100308.69
2023-01-21T06:58:34.168Z,100312.41
2023-01-21T07:01:02.935Z,100308.00
2023-01-21T07:03:32.023Z,100309.63
2023-01-21T07:06:02.175Z,100317.25
2023-01-21T07:08:31.245Z,100314.31
2023-01-21T07:11:00.151Z,100312.69
2023-01-21T07:13:29.303Z,100311.06
2023-01-21T07:16:01.906Z,100313.28
2023-01-21T07:18:31.166Z,100307.44
2023-01-21T07:21:01.881Z,100312.63
2023-01-21T07:23:31.181Z,100312.81
2023-01-21T07:26:03.035Z,100324.00
2023-01-21T07:28:32.142Z,100311.84
2023-01-21T07:31:01.371Z,100299.75
2023-01-21T07:33:31.171Z,100297.94
2023-01-21T07:36:01.634Z,100313.53
2023-01-21T07:38:30.738Z,100308.47
2023-01-21T07:40:59.891Z,100318.56
2023-01-21T07:43:29.188Z,100304.72
2023-01-21T07:46:00.413Z,100305.63
2023-01-21T07:48:29.581Z,100297.81
2023-01-21T07:50:59.383Z,100301.50
2023-01-21T07:53:29.924Z,100293.63
2023-01-21T07:55:58.738Z,100299.41
2023-01-21T07:58:27.787Z,100295.25
2023-01-21T08:00:56.594Z,100303.66
2023-01-21T08:03:26.116Z,100288.22
2023-01-21T08:05:54.959Z,100297.28
2023-01-21T08:08:24.132Z,100303.56
2023-01-21T08:10:55.613Z,100293.97
2023-01-21T08:13:25.339Z,100299.41
2023-01-21T08:15:56.038Z,100295.75
2023-01-21T08:18:26.342Z,100299.22
2023-01-21T08:20:58.206Z,100307.81
2023-01-21T08:23:28.378Z,100302.47
2023-01-21T08:26:02.872Z,100306.75
2023-01-21T08:28:32.107Z,100317.97
2023-01-21T08:31:06.669Z,100310.09
2023-01-21T08:33:35.968Z,100319.75
2023-01-21T08:36:07.637Z,100320.53
2023-01-21T08:38:37.542Z,100324.69
2023-01-21T08:41:07.804Z,100323.75
2023-01-21T08:43:36.932Z,100334.31
2023-01-21T08:46:06.432Z,100328.81
2023-01-21T08:48:35.592Z,100329.81
2023-01-21T08:51:04.543Z,100338.59
2023-01-21T08:53:33.693Z,100338.66
2023-01-21T08:56:04.707Z,100335.97
2023-01-21T08:58:35.463Z,100338.72
2023-01-21T09:01:09.061Z,100343.84
2023-01-21T09:03:38.512Z,100335.81
2023-01-21T09:06:08.400Z,100335.03
2023-01-21T09:08:37.546Z,100345.09
2023-01-21T09:11:07.217Z,100345.91
2023-01-21T09:13:40.533Z,100338.63
2023-01-21T09:16:10.770Z,100352.09
2023-01-21T09:18:40.143Z,100353.63
2023-01-21T09:21:10.238Z,100346.91
2023-01-21T09:23:41.080Z,100343.72
2023-01-21T09:26:15.912Z,100355.91
2023-01-21T09:28:52.172Z,100358.50
2023-01-21T09:31:23.515Z,100353.22
2023-01-21T09:33:56.576Z,100354.59
2023-01-21T09:36:28.361Z,100357.25
2023-01-21T09:38:58.065Z,100365.94
2023-01-21T09:41:31.639Z,100359.31
2023-01-21T09:44:17.667Z,100365.47
2023-01-21T09:46:56.504Z,100364.63
2023-01-21T09:49:32.137Z,100372.19
2023-01-21T09:52:17.712Z,100376.53
2023-01-21T09:54:46.931Z,100369.53
2023-01-21T09:57:47.256Z,100364.22
2023-01-21T10:00:36.829Z,100368.72
2023-01-21T10:03:22.955Z,100368.56
2023-01-21T10:06:23.210Z,100369.75
2023-01-21T10:09:29.795Z,100372.97
2023-01-21T10:12:18.897Z,100374.63
2023-01-21T10:15:43.489Z,100373.75
2023-01-21T10:18:20.296Z,100377.25
2023-01-21T10:20:56.217Z,100376.38
2023-01-21T10:23:33.040Z,100378.13
2023-01-21T10:26:09.957Z,100374.44
2023-01-21T10:28:42.935Z,100375.06
2023-01-21T10:31:24.685Z,100372.22
2023-01-21T10:33:55.978Z,100364.50
2023-01-21T10:36:55.299Z,100383.47
2023-01-21T10:39:38.653Z,100385.25
2023-01-21T10:42:37.494Z,100391.44
2023-01-21T10:45:23.420Z,100394.88
2023-01-21T10:48:03.665Z,100393.97
2023-01-21T10:50:49.336Z,100393.69
2023-01-21T10:53:30.852Z,100403.56
2023-01-21T10:56:19.594Z,100407.03
2023-01-21T10:58:53.405Z,100416.94
2023-01-21T11:01:29.247Z,100411.53
2023-01-21T11:04:05.731Z,100413.78
2023-01-21T11:06:37.770Z,100412.19
2023-01-21T11:09:13.523Z,100418.47
2023-01-21T11:11:43.044Z,100418.66
2023-01-21T11:14:11.935Z,100430.38
2023-01-21T11:16:48.195Z,100432.44
2023-01-21T11:19:22.767Z,100431.44
2023-01-21T11:22:04.372Z,100426.94
2023-01-21T11:24:44.128Z,100428.38
2023-01-21T11:27:22.104Z,100428.75
2023-01-21T11:29:51.916Z,100428.84
2023-01-21T11:32:23.988Z,100432.41
2023-01-21T11:35:02.763Z,100429.88
2023-01-21T11:37:34.600Z,100441.84
2023-01-21T11:40:11.678Z,100440.16
2023-01-21T11:42:50.914Z,100436.19
2023-01-21T11:45:30.874Z,100439.41
2023-01-21T11:48:01.635Z,100442.84
2023-01-21T11:50:34.741Z,100451.31
2023-01-21T11:53:17.433Z,100458.50
2023-01-21T11:55:50.739Z,100462.41
2023-01-21T11:58:26.255Z,100464.88
2023-01-21T12:00:58.543Z,100473.03
2023-01-21T12:03:35.530Z,100475.59
2023-01-21T12:06:06.266Z,100478.25
2023-01-21T12:08:41.012Z,100487.88
2023-01-21T12:11:11.591Z,100488.81
2023-01-21T12:13:53.887Z,100486.81
2023-01-21T12:16:33.800Z,100489.22
2023-01-21T12:19:41.252Z,100496.13
2023-01-21T12:22:30.895Z,100495.13
2023-01-21T12:25:40.918Z,100495.94
2023-01-21T12:28:42.688Z,100503.94
2023-01-21T12:31:25.931Z,100504.56
2023-01-21T12:34:03.945Z,100509.94
2023-01-21T12:36:40.868Z,100507.84
2023-01-21T12:39:25.836Z,100522.47
2023-01-21T12:42:10.826Z,100514.13
2023-01-21T12:44:49.302Z,100526.94
2023-01-21T12:47:33.871Z,100523.63
2023-01-21T12:50:23.426Z,100528.53
2023-01-21T12:53:15.697Z,100529.28
2023-01-21T12:56:21.895Z,100536.09
2023-01-21T12:59:01.576Z,100546.00
2023-01-21T13:01:49.682Z,100539.31
2023-01-21T13:04:38.557Z,100549.78
2023-01-21T13:07:21.847Z,100558.75
2023-01-21T13:10:01.925Z,100562.13
2023-01-21T13:12:34.598Z,100558.81
2023-01-21T13:15:16.804Z,100568.91
2023-01-21T13:17:52.143Z,100571.31
2023-01-21T13:20:23.937Z,100584.22
2023-01-21T13:23:21.444Z,100580.75
2023-01-21T13:26:01.883Z,100592.72
2023-01-21T13:28:40.309Z,100587.69
2023-01-21T13:31:20.280Z,100588.47
2023-01-21T13:34:07.584Z,100593.59
2023-01-21T13:37:10.587Z,100596.97
2023-01-21T13:39:51.180Z,100605.91
2023-01-21T13:42:39.308Z,100599.81
2023-01-21T13:45:25.773Z,100613.59
2023-01-21T13:48:34.950Z,100613.47
2023-01-21T13:51:27.859Z,100620.19
2023-01-21T13:54:38.679Z,100624.72
2023-01-21T13:57:56.131Z,100631.41
2023-01-21T14:00:33.577Z,100641.88
2023-01-21T14:03:20.275Z,100646.28
2023-01-21T14:05:58.341Z,100648.34
2023-01-21T14:08:34.237Z,100650.31
2023-01-21T14:11:12.603Z,100649.94
2023-01-21T14:14:19.608Z,100647.81
2023-01-21T14:17:13.599Z,100655.63
2023-01-21T14:20:21.273Z,100662.63
2023-01-21T14:23:20.846Z,100664.22
2023-01-21T14:26:12.025Z,100660.19
2023-01-21T14:28:55.509Z,100675.72
2023-01-21T14:31:34.492Z,100685.22
2023-01-21T14:34:13.745Z,100673.47
2023-01-21T14:36:57.128Z,100688.38
2023-01-21T14:39:42.301Z,100697.22
2023-01-21T14:42:14.815Z,100695.16
2023-01-21T14:45:02.187Z,100701.06
2023-01-21T14:47:50.614Z,100696.88
2023-01-21T14:50:53.117Z,100708.19
2023-01-21T14:53:27.740Z,100712.28
2023-01-21T14:56:20.045Z,100719.63
2023-01-21T14:58:52.856Z,100723.00
2023-01-21T15:01:43.531Z,100731.72
2023-01-21T15:04:27.286Z,100738.44
2023-01-21T15:07:01.023Z,100737.69
2023-01-21T15:09:37.944Z,100747.25
2023-01-21T15:12:17.688Z,100755.78
2023-01-21T15:14:47.365Z,100757.09
2023-01-21T15:18:04.949Z,100762.50
2023-01-21T15:20:50.863Z,100768.53
2023-01-21T15:23:37.011Z,100772.16
2023-01-21T15:26:33.316Z,100782.56
2023-01-21T15:29:37.259Z,100783.34
2023-01-21T15:32:30.021Z,100785.91
2023-01-21T15:35:03.354Z,100791.25
2023-01-21T15:37:39.026Z,100794.56
2023-01-21T15:40:27.864Z,100794.41
2023-01-21T15:43:05.706Z,100802.38
2023-01-21T15:45:45.534Z,100796.34
2023-01-21T15:48:46.813Z,100796.19
2023-01-21T15:51:32.609Z,100803.94
2023-01-21T15:54:21.566Z,100807.44
2023-01-21T15:57:12.243Z,100809.31
2023-01-21T16:00:15.711Z,100813.31
2023-01-21T16:02:57.392Z,100809.13
2023-01-21T16:05:40.013Z,100818.75
2023-01-21T16:08:27.340Z,100818.69
2023-01-21T16:11:13.627Z,100833.34
2023-01-21T16:13:54.936Z,100845.38
2023-01-21T16:16:47.768Z,100847.81
2023-01-21T16:19:26.832Z,100849.50
2023-01-21T16:22:02.474Z,100856.59
2023-01-21T16:24:36.227Z,100849.22
2023-01-21T16:27:25.668Z,100858.81
2023-01-21T16:29:59.547Z,100869.38
2023-01-21T16:32:32.377Z,100864.28
2023-01-21T16:35:01.840Z,100871.97
2023-01-21T16:37:33.096Z,100879.19
2023-01-21T16:40:29.353Z,100891.47
2023-01-21T16:43:18.833Z,100897.16
2023-01-21T16:45:54.665Z,100896.63
2023-01-21T16:48:32.726Z,100903.28
2023-01-21T16:51:02.941Z,100911.00
2023-01-21T16:53:31.841Z,100904.97
2023-01-21T16:56:01.349Z,100913.47
2023-01-21T16:58:33.135Z,100914.09
2023-01-21T17:01:10.781Z,100925.63
2023-01-21T17:03:41.085Z,100929.84
2023-01-21T17:06:16.816Z,100928.97
2023-01-21T17:08:53.955Z,100937.53
2023-01-21T17:11:24.432Z,100934.06
2023-01-21T17:13:54.229Z,100941.78
2023-01-21T17:16:30.671Z,100943.53
2023-01-21T17:19:06.332Z,100938.38
2023-01-21T17:21:44.101Z,100952.03
2023-01-21T17:24:23.754Z,100955.63
2023-01-21T17:27:00.859Z,100947.81
2023-01-21T17:29:32.670Z,100956.50
2023-01-21T17:32:05.238Z,100971.13
2023-01-21T17:34:37.903Z,100969.44
2023-01-21T17:37:45.643Z,100975.41
2023-01-21T17:40:34.374Z,100992.66
2023-01-21T17:43:20.399Z,100986.72
2023-01-21T17:45:52.430Z,100997.16
2023-01-21T17:48:28.699Z,101002.88
2023-01-21T17:51:08.067Z,100998.69
2023-01-21T17:53:42.951Z,101008.34
2023-01-21T17:56:13.206Z,101016.94
2023-01-21T17:58:52.003Z,101009.91
2023-01-21T18:01:22.307Z,101017.81
2023-01-21T18:03:51.422Z,101023.84
2023-01-21T18:06:27.765Z,101026.50
2023-01-21T18:08:58.681Z,101036.78
2023-01-21T18:11:27.616Z,101036.19
2023-01-21T18:13:56.738Z,101043.19
2023-01-21T18:16:25.697Z,101045.03
2023-01-21T18:18:54.882Z,101051.09
2023-01-21T18:21:25.050Z,101066.44
2023-01-21T18:23:54.118Z,101063.91
2023-01-21T18:26:33.415Z,101068.19
2023-01-21T18:29:02.512Z,101070.72
2023-01-21T18:31:31.532Z,101067.22
2023-01-21T18:34:00.902Z,101069.81
2023-01-21T18:36:31.234Z,101070.88
2023-01-21T18:39:00.353Z,101073.34
2023-01-21T18:41:29.252Z,101072.97
2023-01-21T18:43:58.347Z,101075.84
2023-01-21T18:46:27.267Z,101073.88
2023-01-21T18:48:56.472Z,101069.78
2023-01-21T18:51:26.350Z,101086.09
2023-01-21T18:53:56.898Z,101089.69
2023-01-21T18:56:25.710Z,101079.41
2023-01-21T18:58:54.914Z,101087.09
2023-01-21T19:01:24.223Z,101097.38
2023-01-21T19:03:55.788Z,101095.56
2023-01-21T19:06:26.425Z,101097.59
2023-01-21T19:08:56.935Z,101105.06
2023-01-21T19:11:25.814Z,101100.91
2023-01-21T19:13:54.907Z,101105.22
2023-01-21T19:16:23.870Z,101111.28
2023-01-21T19:18:53.018Z,101117.38
2023-01-21T19:21:21.937Z,101117.50
2023-01-21T19:23:51.032Z,101120.06
2023-01-21T19:26:21.577Z,101121.72
2023-01-21T19:28:50.799Z,101134.59
2023-01-21T19:31:19.827Z,101132.06
2023-01-21T19:33:48.945Z,101133.72
2023-01-21T19:36:20.562Z,101130.25
2023-01-21T19:38:55.448Z,101139.00
2023-01-21T19:41:26.199Z,101144.19
2023-01-21T19:43:55.307Z,101145.97
2023-01-21T19:46:28.740Z,101150.25
2023-01-21T19:48:59.182Z,101151.88
2023-01-21T19:51:30.687Z,101154.38
2023-01-21T19:54:00.982Z,101165.72
2023-01-21T19:56:31.362Z,101172.63
2023-01-21T19:59:02.445Z,101177.88
2023-01-21T20:01:31.543Z,101176.22
2023-01-21T20:04:01.146Z,101187.56
2023-01-21T20:06:40.310Z,101183.91
2023-01-21T20:09:14.681Z,101187.34
2023-01-21T20:11:44.991Z,101190.44
2023-01-21T20:14:14.172Z,101191.59
2023-01-21T20:16:49.952Z,101197.78
2023-01-21T20:19:20.568Z,101204.78
2023-01-21T20:22:02.748Z,101210.03
2023-01-21T20:24:33.988Z,101208.25
2023-01-21T20:27:08.582Z,101210.78
2023-01-21T20:29:44.434Z,101217.75
2023-01-21T20:32:13.466Z,101217.03
2023-01-21T20:34:42.503Z,101217.06
2023-01-21T20:37:15.293Z,101219.72
2023-01-21T20:39:44.395Z,101229.19
2023-01-21T20:42:15.537Z,101228.28
2023-01-21T20:44:44.689Z,101230.78
2023-01-21T20:47:14.563Z,101235.06
2023-01-21T20:49:43.668Z,101239.38
2023-01-21T20:52:13.144Z,101244.50
2023-01-21T20:54:42.421Z,101241.16
2023-01-21T20:57:15.424Z,101259.22
2023-01-21T20:59:44.664Z,101256.59
2023-01-21T21:02:13.482Z,101268.63
2023-01-21T21:04:42.545Z,101267.66
2023-01-21T21:07:16.773Z,101266.91
2023-01-21T21:09:45.864Z,101271.22
2023-01-21T21:12:16.707Z,101276.47
2023-01-21T21:14:45.802Z,101275.50
2023-01-21T21:17:14.593Z,101273.16
2023-01-21T21:19:43.736Z,101281.69
2023-01-21T21:22:14.269Z,101288.66
2023-01-21T21:24:43.458Z,101290.31
2023-01-21T21:27:13.243Z,101298.22
2023-01-21T21:29:43.714Z,101299.00
2023-01-21T21:32:14.681Z,101302.41
2023-01-21T21:34:43.860Z,101309.28
2023-01-21T21:37:14.638Z,101312.81
2023-01-21T21:39:43.778Z,101311.09
2023-01-21T21:42:32.671Z,101321.47
2023-01-21T21:45:03.120Z,101318.06
2023-01-21T21:47:49.523Z,101319.84
2023-01-21T21:50:18.798Z,101318.06
2023-01-21T21:52:47.571Z,101321.66
2023-01-21T21:55:19.388Z,101325.09
2023-01-21T21:57:48.538Z,101338.06
2023-01-21T22:00:21.620Z,101344.94
2023-01-21T22:02:50.507Z,101337.25
2023-01-21T22:05:20.200Z,101344.13
2023-01-21T22:07:49.142Z,101342.41
2023-01-21T22:10:19.713Z,101341.56
2023-01-21T22:12:49.678Z,101350.16
2023-01-21T22:15:20.247Z,101360.47
2023-01-21T22:17:49.056Z,101364.88
2023-01-21T22:20:18.628Z,101362.28
2023-01-21T22:22:47.402Z,101364.97
2023-01-21T22:25:16.835Z,101368.47
2023-01-21T22:27:46.781Z,101374.44
2023-01-21T22:30:16.810Z,101376.00
2023-01-21T22:32:46.974Z,101374.47
2023-01-21T22:35:16.395Z,101372.78
2023-01-21T22:37:45.347Z,101378.78
2023-01-21T22:40:16.243Z,101376.16
2023-01-21T22:42:45.027Z,101378.88
2023-01-21T22:45:14.103Z,101384.84
2023-01-21T22:47:42.972Z,101383.22
2023-01-21T22:50:14.495Z,101383.13
2023-01-21T22:52:43.323Z,101387.44
2023-01-21T22:55:12.770Z,101389.25
2023-01-21T22:57:41.942Z,101385.66
2023-01-21T23:00:32.723Z,101393.44
2023-01-21T23:03:01.608Z,101393.44
2023-01-21T23:05:32.893Z,101392.56
2023-01-21T23:08:01.938Z,101392.56
2023-01-21T23:10:31.255Z,101391.75
2023-01-21T23:13:00.138Z,101398.63
2023-01-21T23:15:29.269Z,101402.06
2023-01-21T23:17:58.121Z,101404.59
2023-01-21T23:20:28.858Z,101401.19
2023-01-21T23:22:59.668Z,101400.41
2023-01-21T23:25:28.928Z,101397.81
2023-01-21T23:27:57.727Z,101397.97
2023-01-21T23:30:26.850Z,101396.16
2023-01-21T23:32:55.657Z,101399.59
2023-01-21T23:35:24.740Z,101402.25
2023-01-21T23:37:53.653Z,101402.19
2023-01-21T23:40:24.236Z,101398.75
2023-01-21T23:42:53.333Z,101403.00
2023-01-21T23:45:22.455Z,101403.13
2023-01-21T23:47:51.265Z,101397.03
2023-01-21T23:50:20.511Z,101405.69
2023-01-21T23:52:49.482Z,101403.03
2023-01-21T23:55:18.731Z,101400.44
2023-01-21T23:57:48.877Z,101407.41
